Detall de PIREP

Printer-friendly versionPDF version

[2011/04/12 09:51:00]
Flight IATA:CT3408
Pilot Number:011
Company ICAO:CAT
Aircraft Type:F28/A
PAX:85
Departing Airport: LEBL
Destination Airport: LSGG
Alternate Airport:LFLL
Online: VATSIM
Route:DALIN UN870 MAXIR UN853 BODRU UM616 KOTIT UN852 NEDRU UY31 GIPNO BELUS
Flight Level:F300
No Slew and time accel
No pause
Crash detect
Detect pilot in Cockpit between each 30 and 45 minutes
09:51 Zero fuel Weight: 58657 Lbs, Fuel Weight: 11428 Lbs
09:51 VATSIM:LEBL 120930Z 32011G21KT 290V350 9999 FEW030 20/10 Q1023 NOSIG
09:51 VATSIM:LSGG 120920Z 31006KT 250V060 9999 VCSH FEW028 SCT040 BKN090 15/06 Q1023 TEMPO 33010G20KT
09:54 Parking Brakes off
10:06 Take-off
10:06 Take off Weight: 69423 Lbs
10:06 Wind: 322º @ 010 Knots Heading: 016º
10:06 POS N41º 18´ 04´´ E002º 05´ 27´´
10:06 Gear Up: 157 Knots
10:06 Flaps:2 at 157 Knots
10:07 Flaps:1 at 213 Knots
10:07 Flaps:0 at 218Knots
10:21 Wind:322º@051 Knots Heading: 058º Ground Speed: 398 Knots Altitude 28510 ft
10:22 TOC
10:22 Fuel Weight: 8669 Lb
10:36 Wind:336º@067 Knots Heading: 034º Ground Speed: 424 Knots Altitude 30141 ft
10:54 TOD
10:54 Fuel Weight: 6308 Lb
11:13 Flaps:1 at 226 Knots
11:13 Flaps:2 at 226 Knots
11:13 Flaps:3 at 210 Knots
11:13 Gear Down: 207 Knots
11:14 Flaps:4 at 148 Knots
11:14 Flaps:5 at 129 Knots
11:16 TouchDown:Rate -175 ft/min Speed: 115 Knots
11:16 VATSIM:LSGG 121050Z 35006KT 280V040 9999 VCSH FEW035 BKN050 15/06 Q1023 TEMPO 33010G20KT
11:16 Land
11:16 Wind:349º@006 Knots
11:16 Heading: 044º
11:16 Flight Duration: 01:10
11:16 Landing Weight: 63922 Lbs
11:16 POS N46º 14´ 15´´ E006º 06´ 30´´
11:20 Parking brakes on
11:20 Block to Block Duration: 01:26
11:20 Final Fuel: 5194 Lbls
11:20 Spent Fuel: 6234 Lbls
11:20 Flight Length: 101 NM
11:20 TOD Land Length: 00 NM

Exportar CSV

Powered by Drupal - Modified by Danger4k